createdAt,value
2019-01-18T00:00:30.899Z,0.00
2019-01-18T00:01:30.938Z,0.00
2019-01-18T00:02:30.986Z,0.00
2019-01-18T00:03:31.005Z,0.00
2019-01-18T00:04:31.041Z,0.00
2019-01-18T00:05:31.077Z,0.00
2019-01-18T00:06:31.112Z,0.00
2019-01-18T00:07:31.152Z,0.00
2019-01-18T00:08:31.188Z,0.00
2019-01-18T00:09:31.227Z,0.00
2019-01-18T00:10:31.305Z,0.00
2019-01-18T00:11:31.324Z,0.00
2019-01-18T00:12:31.326Z,0.00
2019-01-18T00:13:31.362Z,0.00
2019-01-18T00:14:31.397Z,0.00
2019-01-18T00:15:31.441Z,0.00
2019-01-18T00:16:31.469Z,0.00
2019-01-18T00:17:31.504Z,0.00
2019-01-18T00:18:31.538Z,0.00
2019-01-18T00:19:31.584Z,0.00
2019-01-18T00:20:31.613Z,0.00
2019-01-18T00:21:31.646Z,0.00
2019-01-18T00:22:31.680Z,0.00
2019-01-18T00:23:31.726Z,0.00
2019-01-18T00:24:31.756Z,0.00
2019-01-18T00:25:31.788Z,0.00
2019-01-18T00:26:31.823Z,0.00
2019-01-18T00:27:31.860Z,0.00
2019-01-18T00:28:31.897Z,0.00
2019-01-18T00:29:31.931Z,0.00
2019-01-18T00:30:31.966Z,0.00
2019-01-18T00:31:32.009Z,0.00
2019-01-18T00:32:32.037Z,0.00
2019-01-18T00:33:32.076Z,0.00
2019-01-18T00:34:32.108Z,0.00
2019-01-18T00:35:32.145Z,0.00
2019-01-18T00:36:32.186Z,0.00
2019-01-18T00:37:32.217Z,0.00
2019-01-18T00:38:32.251Z,0.00
2019-01-18T00:39:32.292Z,0.00
2019-01-18T00:40:32.325Z,0.00
2019-01-18T00:41:32.362Z,0.00
2019-01-18T00:42:32.396Z,0.00
2019-01-18T00:43:32.435Z,0.00
2019-01-18T00:44:32.472Z,0.00
2019-01-18T00:45:32.503Z,0.00
2019-01-18T00:46:32.540Z,0.00
2019-01-18T00:47:32.574Z,0.00
2019-01-18T00:48:32.615Z,0.00
2019-01-18T00:49:32.660Z,0.00
2019-01-18T00:50:32.689Z,0.00
2019-01-18T00:51:32.721Z,0.00
2019-01-18T00:52:32.752Z,0.00
2019-01-18T00:53:32.797Z,0.00
2019-01-18T00:54:32.822Z,0.00
2019-01-18T00:55:32.866Z,0.00
2019-01-18T00:56:32.904Z,0.00
2019-01-18T00:57:32.930Z,0.00
2019-01-18T00:58:32.974Z,0.00
2019-01-18T00:59:36.410Z,0.00
2019-01-18T01:00:33.043Z,0.00
2019-01-18T01:01:33.074Z,0.00
2019-01-18T01:02:33.126Z,0.00
2019-01-18T01:03:33.144Z,0.00
2019-01-18T01:04:33.179Z,0.00
2019-01-18T01:05:33.217Z,0.00
2019-01-18T01:06:33.251Z,0.00
2019-01-18T01:07:33.287Z,0.00
2019-01-18T01:08:33.327Z,0.00
2019-01-18T01:09:33.359Z,0.00
2019-01-18T01:10:33.392Z,0.00
2019-01-18T01:11:33.430Z,0.00
2019-01-18T01:12:33.465Z,0.00
2019-01-18T01:13:33.536Z,0.00
2019-01-18T01:14:33.539Z,0.00
2019-01-18T01:15:33.573Z,0.00
2019-01-18T01:16:33.615Z,0.00
2019-01-18T01:17:33.642Z,0.00
2019-01-18T01:18:33.679Z,0.00
2019-01-18T01:19:33.720Z,0.00
2019-01-18T01:20:33.749Z,0.00
2019-01-18T01:21:33.786Z,0.00
2019-01-18T01:22:33.821Z,0.00
2019-01-18T01:23:33.865Z,0.00
2019-01-18T01:24:33.901Z,0.00
2019-01-18T01:25:33.927Z,0.00
2019-01-18T01:26:33.962Z,0.00
2019-01-18T01:27:33.997Z,0.00
2019-01-18T01:28:34.033Z,0.00
2019-01-18T01:29:34.072Z,0.00
2019-01-18T01:30:34.106Z,0.00
2019-01-18T01:31:34.138Z,0.00
2019-01-18T01:32:34.175Z,0.00
2019-01-18T01:33:34.209Z,0.00
2019-01-18T01:34:34.247Z,0.00
2019-01-18T01:35:34.292Z,0.00
2019-01-18T01:36:34.317Z,0.00
2019-01-18T01:37:34.361Z,0.00
2019-01-18T01:38:34.387Z,0.00
2019-01-18T01:39:34.424Z,0.00
2019-01-18T01:40:34.458Z,0.00
2019-01-18T01:41:34.497Z,0.00
2019-01-18T01:42:34.529Z,0.00
2019-01-18T01:43:34.564Z,0.00
2019-01-18T01:44:34.601Z,0.00
2019-01-18T01:45:34.637Z,0.00
2019-01-18T01:46:34.672Z,0.00
2019-01-18T01:47:34.708Z,0.00
2019-01-18T01:48:34.743Z,0.00
2019-01-18T01:49:34.782Z,0.00
2019-01-18T01:50:34.819Z,0.00
2019-01-18T01:51:34.851Z,0.00
2019-01-18T01:52:34.887Z,0.00
2019-01-18T01:53:34.921Z,0.00
2019-01-18T01:54:34.956Z,0.00
2019-01-18T01:55:34.992Z,0.00
2019-01-18T01:56:35.031Z,0.00
2019-01-18T01:57:35.064Z,0.00
2019-01-18T01:58:35.167Z,0.00
2019-01-18T01:59:35.133Z,0.00
2019-01-18T02:00:35.169Z,0.00
2019-01-18T02:01:35.205Z,0.00
2019-01-18T02:02:35.242Z,0.00
2019-01-18T02:03:35.275Z,0.00
2019-01-18T02:04:35.311Z,0.00
2019-01-18T02:05:35.348Z,0.00
2019-01-18T02:06:35.382Z,0.00
2019-01-18T02:07:35.422Z,0.00
2019-01-18T02:08:35.454Z,0.00
2019-01-18T02:09:35.500Z,0.00
2019-01-18T02:10:35.535Z,0.00
2019-01-18T02:11:35.562Z,0.00
2019-01-18T02:12:35.597Z,0.00
2019-01-18T02:13:35.632Z,0.00
2019-01-18T02:14:35.666Z,0.00
2019-01-18T02:15:35.706Z,0.00
2019-01-18T02:16:35.738Z,0.00
2019-01-18T02:17:35.775Z,0.00
2019-01-18T02:18:35.817Z,0.00
2019-01-18T02:19:35.844Z,0.00
2019-01-18T02:20:35.882Z,0.00
2019-01-18T02:21:35.915Z,0.00
2019-01-18T02:22:35.960Z,0.00
2019-01-18T02:23:36.033Z,0.00
2019-01-18T02:24:36.021Z,0.00
2019-01-18T02:25:36.059Z,0.00
2019-01-18T02:26:36.093Z,0.00
2019-01-18T02:27:36.136Z,0.00
2019-01-18T02:28:36.164Z,0.00
2019-01-18T02:29:36.248Z,0.00
2019-01-18T02:30:36.242Z,0.00
2019-01-18T02:31:36.270Z,0.00
2019-01-18T02:32:36.321Z,0.00
2019-01-18T02:33:36.339Z,0.00
2019-01-18T02:34:36.377Z,0.00
2019-01-18T02:35:36.412Z,0.00
2019-01-18T02:36:36.445Z,0.00
2019-01-18T02:37:36.489Z,0.00
2019-01-18T02:38:36.516Z,0.00
2019-01-18T02:39:36.551Z,0.00
2019-01-18T02:40:36.590Z,0.00
2019-01-18T02:41:36.631Z,0.00
2019-01-18T02:42:36.660Z,0.00
2019-01-18T02:43:36.704Z,0.00
2019-01-18T02:44:36.729Z,0.00
2019-01-18T02:45:36.764Z,0.00
2019-01-18T02:46:36.799Z,0.00
2019-01-18T02:47:36.834Z,0.00
2019-01-18T02:48:36.873Z,0.00
2019-01-18T02:49:36.912Z,0.00
2019-01-18T02:50:36.946Z,0.00
2019-01-18T02:51:36.987Z,0.00
2019-01-18T02:52:37.012Z,0.00
2019-01-18T02:53:37.050Z,0.00
2019-01-18T02:54:37.096Z,0.00
2019-01-18T02:55:37.119Z,0.00
2019-01-18T02:56:37.155Z,0.00
2019-01-18T02:57:37.191Z,0.00
2019-01-18T02:58:37.225Z,0.00
2019-01-18T02:59:37.261Z,0.00
2019-01-18T03:00:37.297Z,0.00
2019-01-18T03:01:37.333Z,0.00
2019-01-18T03:02:37.367Z,0.00
2019-01-18T03:03:37.402Z,0.00
2019-01-18T03:04:37.439Z,0.00
2019-01-18T03:05:37.481Z,0.00
2019-01-18T03:06:37.508Z,0.00
2019-01-18T03:07:37.543Z,0.00
2019-01-18T03:08:37.580Z,0.00
2019-01-18T03:09:37.615Z,0.00
2019-01-18T03:10:37.651Z,0.00
2019-01-18T03:11:37.685Z,0.00
2019-01-18T03:12:37.721Z,0.00
2019-01-18T03:13:37.756Z,0.00
2019-01-18T03:14:37.791Z,0.00
2019-01-18T03:15:37.828Z,0.00
2019-01-18T03:16:37.862Z,0.00
2019-01-18T03:17:37.900Z,0.00
2019-01-18T03:18:37.934Z,0.00
2019-01-18T03:19:37.970Z,0.00
2019-01-18T03:20:38.007Z,0.00
2019-01-18T03:21:38.044Z,0.00
2019-01-18T03:22:38.078Z,0.00
2019-01-18T03:23:38.111Z,0.00
2019-01-18T03:24:38.156Z,0.00
2019-01-18T03:25:38.183Z,0.00
2019-01-18T03:26:38.218Z,0.00
2019-01-18T03:27:38.253Z,0.00
2019-01-18T03:28:38.292Z,0.00
2019-01-18T03:29:38.326Z,0.00
2019-01-18T03:30:38.361Z,0.00
2019-01-18T03:31:38.396Z,0.00
2019-01-18T03:32:38.434Z,0.00
2019-01-18T03:33:38.493Z,0.00
2019-01-18T03:34:38.503Z,0.00
2019-01-18T03:35:38.546Z,0.00
2019-01-18T03:36:38.574Z,0.00
2019-01-18T03:37:38.608Z,0.00
2019-01-18T03:38:38.646Z,0.00
2019-01-18T03:39:38.679Z,0.00
2019-01-18T03:40:38.719Z,0.00
2019-01-18T03:41:38.751Z,0.00
2019-01-18T03:42:38.786Z,0.00
2019-01-18T03:43:38.819Z,0.00
2019-01-18T03:44:38.857Z,0.00
2019-01-18T03:45:38.898Z,0.00
2019-01-18T03:46:38.927Z,0.00
2019-01-18T03:47:38.961Z,0.00
2019-01-18T03:48:38.999Z,0.00
2019-01-18T03:49:39.039Z,0.00
2019-01-18T03:50:39.069Z,0.00
2019-01-18T03:51:39.104Z,0.00
2019-01-18T03:52:39.139Z,0.00
2019-01-18T03:53:39.176Z,0.00
2019-01-18T03:54:39.212Z,0.00
2019-01-18T03:55:39.269Z,0.00
2019-01-18T03:56:39.281Z,0.00
2019-01-18T03:57:39.319Z,0.00
2019-01-18T03:58:39.351Z,0.00
2019-01-18T03:59:39.489Z,0.00
2019-01-18T04:00:39.426Z,0.00
2019-01-18T04:01:39.460Z,0.00
2019-01-18T04:02:39.496Z,0.00
2019-01-18T04:03:39.532Z,0.00
2019-01-18T04:04:39.570Z,0.00
2019-01-18T04:05:39.603Z,0.00
2019-01-18T04:06:39.639Z,0.00
2019-01-18T04:07:39.708Z,0.00
2019-01-18T04:08:39.711Z,0.00
2019-01-18T04:09:39.749Z,0.00
2019-01-18T04:10:39.792Z,0.00
2019-01-18T04:11:39.817Z,0.00
2019-01-18T04:12:39.852Z,0.00
2019-01-18T04:13:39.888Z,0.00
2019-01-18T04:14:39.921Z,0.00
2019-01-18T04:15:39.957Z,0.00
2019-01-18T04:16:39.996Z,0.00
2019-01-18T04:17:40.031Z,0.00
2019-01-18T04:18:40.070Z,0.00
2019-01-18T04:19:40.108Z,0.00
2019-01-18T04:20:40.135Z,0.00
2019-01-18T04:21:40.170Z,0.00
2019-01-18T04:22:40.224Z,0.00
2019-01-18T04:23:40.251Z,0.00
2019-01-18T04:24:40.278Z,0.00
2019-01-18T04:25:40.312Z,0.00
2019-01-18T04:26:40.347Z,0.00
2019-01-18T04:27:40.383Z,0.00
2019-01-18T04:28:40.418Z,0.00
2019-01-18T04:29:40.504Z,0.00
2019-01-18T04:30:40.491Z,0.00
2019-01-18T04:31:40.531Z,0.00
2019-01-18T04:32:40.569Z,0.00
2019-01-18T04:33:40.597Z,0.00
2019-01-18T04:34:40.633Z,0.00
2019-01-18T04:35:40.666Z,0.00
2019-01-18T04:36:40.703Z,0.00
2019-01-18T04:37:40.738Z,0.00
2019-01-18T04:38:40.772Z,0.00
2019-01-18T04:39:40.809Z,0.00
2019-01-18T04:40:40.853Z,0.00
2019-01-18T04:41:40.880Z,0.00
2019-01-18T04:42:40.916Z,0.00
2019-01-18T04:43:40.949Z,0.00
2019-01-18T04:44:40.984Z,0.00
2019-01-18T04:45:41.068Z,0.00
2019-01-18T04:46:41.055Z,0.00
2019-01-18T04:47:41.096Z,0.00
2019-01-18T04:48:41.125Z,0.00
2019-01-18T04:49:41.160Z,0.00
2019-01-18T04:50:41.196Z,0.00
2019-01-18T04:51:41.231Z,0.00
2019-01-18T04:52:41.268Z,0.00
2019-01-18T04:53:41.301Z,0.00
2019-01-18T04:54:41.338Z,0.00
2019-01-18T04:55:41.374Z,0.00
2019-01-18T04:56:41.557Z,0.00
2019-01-18T04:57:41.444Z,0.00
2019-01-18T04:58:41.478Z,0.00
2019-01-18T04:59:41.520Z,0.00
2019-01-18T05:00:41.824Z,0.00
2019-01-18T05:01:41.592Z,0.00
2019-01-18T05:02:41.618Z,0.00
2019-01-18T05:03:41.661Z,0.00
2019-01-18T05:04:41.691Z,0.00
2019-01-18T05:05:41.724Z,0.00
2019-01-18T05:06:41.759Z,0.00
2019-01-18T05:07:41.794Z,0.00
2019-01-18T05:08:41.830Z,0.00
2019-01-18T05:09:41.865Z,0.00
2019-01-18T05:10:41.905Z,0.00
2019-01-18T05:11:41.934Z,0.00
2019-01-18T05:12:41.970Z,0.00
2019-01-18T05:13:42.004Z,0.00
2019-01-18T05:14:42.038Z,0.00
2019-01-18T05:15:42.091Z,0.00
2019-01-18T05:16:42.110Z,0.00
2019-01-18T05:17:42.146Z,0.00
2019-01-18T05:18:42.179Z,0.00
2019-01-18T05:19:42.215Z,0.00
2019-01-18T05:20:42.250Z,0.00
2019-01-18T05:21:42.285Z,0.00
2019-01-18T05:22:42.319Z,0.00
2019-01-18T05:23:42.353Z,0.00
2019-01-18T05:24:49.094Z,0.00
2019-01-18T05:25:42.426Z,0.00
2019-01-18T05:26:42.458Z,0.00
2019-01-18T05:27:42.500Z,0.00
2019-01-18T05:28:42.527Z,0.00
2019-01-18T05:29:42.563Z,0.00
2019-01-18T05:30:47.491Z,0.00
2019-01-18T05:31:42.638Z,0.00
2019-01-18T05:32:42.678Z,0.00
2019-01-18T05:33:42.701Z,0.00
2019-01-18T05:34:42.737Z,0.00
2019-01-18T05:35:42.772Z,0.00
2019-01-18T05:36:42.810Z,0.00
2019-01-18T05:37:42.843Z,0.00
2019-01-18T05:38:42.876Z,0.00
2019-01-18T05:39:43.028Z,0.00
2019-01-18T05:40:42.947Z,0.00
2019-01-18T05:41:42.980Z,0.00
2019-01-18T05:42:43.015Z,0.00
2019-01-18T05:43:43.053Z,0.00
2019-01-18T05:44:43.084Z,0.00
2019-01-18T05:45:43.121Z,0.00
2019-01-18T05:46:43.153Z,0.00
2019-01-18T05:47:43.189Z,0.00
2019-01-18T05:48:43.223Z,0.00
2019-01-18T05:49:43.259Z,0.00
2019-01-18T05:50:43.292Z,0.00
2019-01-18T05:51:43.336Z,0.00
2019-01-18T05:52:43.364Z,0.00
2019-01-18T05:53:43.396Z,0.00
2019-01-18T05:54:43.433Z,0.00
2019-01-18T05:55:43.467Z,0.00
2019-01-18T05:56:43.500Z,0.00
2019-01-18T05:57:43.537Z,0.00
2019-01-18T05:58:43.567Z,0.00
2019-01-18T05:59:43.606Z,0.00
2019-01-18T06:00:43.641Z,0.00
2019-01-18T06:01:43.673Z,0.00
2019-01-18T06:02:43.714Z,0.00
2019-01-18T06:03:43.746Z,0.00
2019-01-18T06:04:43.779Z,0.00
2019-01-18T06:05:43.811Z,0.00
2019-01-18T06:06:43.845Z,0.00
2019-01-18T06:07:43.880Z,0.00
2019-01-18T06:08:43.915Z,0.00
2019-01-18T06:09:43.950Z,0.00
2019-01-18T06:10:43.983Z,0.00
2019-01-18T06:11:44.017Z,0.00
2019-01-18T06:12:44.053Z,0.00
2019-01-18T06:13:44.099Z,0.00
2019-01-18T06:14:44.120Z,0.00
2019-01-18T06:15:44.157Z,0.00
2019-01-18T06:16:44.192Z,0.00
2019-01-18T06:17:44.227Z,0.00
2019-01-18T06:18:44.260Z,0.00
2019-01-18T06:19:44.296Z,0.00
2019-01-18T06:20:44.331Z,0.00
2019-01-18T06:21:44.365Z,0.00
2019-01-18T06:22:44.402Z,0.00
2019-01-18T06:23:44.432Z,0.00
2019-01-18T06:24:44.472Z,0.00
2019-01-18T06:25:44.530Z,0.00
2019-01-18T06:26:44.543Z,0.00
2019-01-18T06:27:44.571Z,0.00
2019-01-18T06:28:44.606Z,0.00
2019-01-18T06:29:44.640Z,0.00
2019-01-18T06:30:44.672Z,0.00
2019-01-18T06:31:44.712Z,0.00
2019-01-18T06:32:44.741Z,0.00
2019-01-18T06:33:44.777Z,0.00
2019-01-18T06:34:44.813Z,0.00
2019-01-18T06:35:44.847Z,0.00
2019-01-18T06:36:44.881Z,0.00
2019-01-18T06:37:44.913Z,0.00
2019-01-18T06:38:44.948Z,0.00
2019-01-18T06:39:44.989Z,0.00
2019-01-18T06:40:45.016Z,4.00
2019-01-18T06:41:45.053Z,4.00
2019-01-18T06:42:45.095Z,4.00
2019-01-18T06:43:45.130Z,4.00
2019-01-18T06:44:45.156Z,4.00
2019-01-18T06:45:45.191Z,8.00
2019-01-18T06:46:45.227Z,4.00
2019-01-18T06:47:45.262Z,4.00
2019-01-18T06:48:45.294Z,8.00
2019-01-18T06:49:45.327Z,12.00
2019-01-18T06:50:45.362Z,12.00
2019-01-18T06:51:45.396Z,12.00
2019-01-18T06:52:45.438Z,16.00
2019-01-18T06:53:45.476Z,20.00
2019-01-18T06:54:45.500Z,20.00
2019-01-18T06:55:45.536Z,28.00
2019-01-18T06:56:45.569Z,32.00
2019-01-18T06:57:45.603Z,36.00
2019-01-18T06:58:45.637Z,40.00
2019-01-18T06:59:45.673Z,48.00
2019-01-18T07:00:45.705Z,52.00
2019-01-18T07:01:45.740Z,64.00
2019-01-18T07:02:45.774Z,72.00
2019-01-18T07:03:45.849Z,80.00
2019-01-18T07:04:45.846Z,88.00
2019-01-18T07:05:45.878Z,100.00
2019-01-18T07:06:45.911Z,112.00
2019-01-18T07:07:45.961Z,120.00
2019-01-18T07:08:45.984Z,136.00
2019-01-18T07:09:46.017Z,152.00
2019-01-18T07:10:46.049Z,172.00
2019-01-18T07:11:46.092Z,188.00
2019-01-18T07:12:46.120Z,216.00
2019-01-18T07:13:46.153Z,244.00
2019-01-18T07:14:46.188Z,268.00
2019-01-18T07:15:46.225Z,288.00
2019-01-18T07:16:46.256Z,312.00
2019-01-18T07:17:46.291Z,340.00
2019-01-18T07:18:46.324Z,364.00
2019-01-18T07:19:46.359Z,396.00
2019-01-18T07:20:46.394Z,420.00
2019-01-18T07:21:46.428Z,452.00
2019-01-18T07:22:46.460Z,480.00
2019-01-18T07:23:46.497Z,516.00
2019-01-18T07:24:46.538Z,556.00
2019-01-18T07:25:46.574Z,600.00
2019-01-18T07:26:46.599Z,640.00
2019-01-18T07:27:46.634Z,676.00
2019-01-18T07:28:46.669Z,720.00
2019-01-18T07:29:46.704Z,732.00
2019-01-18T07:30:46.746Z,708.00
2019-01-18T07:31:46.782Z,720.00
2019-01-18T07:32:46.806Z,756.00
2019-01-18T07:33:46.859Z,800.00
2019-01-18T07:34:46.878Z,792.00
2019-01-18T07:35:46.911Z,836.00
2019-01-18T07:36:46.954Z,868.00
2019-01-18T07:37:46.983Z,912.00
2019-01-18T07:38:47.013Z,956.00
2019-01-18T07:39:47.051Z,984.00
2019-01-18T07:40:47.094Z,1024.00
2019-01-18T07:41:47.132Z,1040.00
2019-01-18T07:42:47.152Z,1124.00
2019-01-18T07:43:47.184Z,1200.00
2019-01-18T07:44:47.227Z,1252.00
2019-01-18T07:45:47.257Z,1256.00
2019-01-18T07:46:47.296Z,1288.00
2019-01-18T07:47:47.332Z,1316.00
2019-01-18T07:48:47.356Z,1340.00
2019-01-18T07:49:47.408Z,1376.00
2019-01-18T07:50:47.432Z,1400.00
2019-01-18T07:51:47.461Z,1432.00
2019-01-18T07:52:47.496Z,1464.00
2019-01-18T07:53:47.542Z,1496.00
2019-01-18T07:54:47.564Z,1536.00
2019-01-18T07:55:47.602Z,1580.00
2019-01-18T07:56:47.634Z,1604.00
2019-01-18T07:57:47.668Z,1636.00
2019-01-18T07:58:47.703Z,1676.00
2019-01-18T07:59:47.738Z,1728.00
2019-01-18T08:00:47.773Z,1776.00
2019-01-18T08:01:47.811Z,1816.00
2019-01-18T08:02:47.841Z,1832.00
2019-01-18T08:03:47.874Z,1844.00
2019-01-18T08:04:47.909Z,1864.00
2019-01-18T08:05:47.949Z,1876.00
2019-01-18T08:06:47.980Z,1896.00
2019-01-18T08:07:48.014Z,1920.00
2019-01-18T08:08:48.053Z,1944.00
2019-01-18T08:09:48.084Z,1964.00
2019-01-18T08:10:48.119Z,1988.00
2019-01-18T08:11:48.152Z,2008.00
2019-01-18T08:12:48.187Z,2028.00
2019-01-18T08:13:48.224Z,2052.00
2019-01-18T08:14:48.254Z,2072.00
2019-01-18T08:15:48.288Z,2092.00
2019-01-18T08:16:48.322Z,2112.00
2019-01-18T08:17:48.358Z,2132.00
2019-01-18T08:18:48.401Z,2152.00
2019-01-18T08:19:48.470Z,2168.00
2019-01-18T08:20:48.468Z,2184.00
2019-01-18T08:21:48.503Z,2196.00
2019-01-18T08:22:48.530Z,2224.00
2019-01-18T08:23:48.564Z,2240.00
2019-01-18T08:24:48.597Z,2256.00
2019-01-18T08:25:48.640Z,2276.00
2019-01-18T08:26:48.668Z,2292.00
2019-01-18T08:27:48.702Z,2308.00
2019-01-18T08:28:48.737Z,2324.00
2019-01-18T08:29:48.771Z,2344.00
2019-01-18T08:30:48.804Z,2356.00
2019-01-18T08:31:48.846Z,2368.00
2019-01-18T08:32:48.883Z,2384.00
2019-01-18T08:33:48.914Z,2404.00
2019-01-18T08:34:48.949Z,2416.00
2019-01-18T08:35:48.986Z,2432.00
2019-01-18T08:36:49.016Z,2448.00
2019-01-18T08:37:49.046Z,2460.00
2019-01-18T08:38:49.132Z,2476.00
2019-01-18T08:39:49.116Z,2492.00
2019-01-18T08:40:49.161Z,2500.00
2019-01-18T08:41:49.185Z,2512.00
2019-01-18T08:42:49.219Z,2528.00
2019-01-18T08:43:49.256Z,2540.00
2019-01-18T08:44:49.288Z,2552.00
2019-01-18T08:45:50.575Z,2560.00
2019-01-18T08:46:49.357Z,2572.00
2019-01-18T08:47:49.397Z,2588.00
2019-01-18T08:48:49.428Z,2600.00
2019-01-18T08:49:49.461Z,2612.00
2019-01-18T08:50:49.502Z,2628.00
2019-01-18T08:51:49.537Z,2636.00
2019-01-18T08:52:49.565Z,2648.00
2019-01-18T08:53:49.598Z,2660.00
2019-01-18T08:54:49.633Z,2672.00
2019-01-18T08:55:49.668Z,2688.00
2019-01-18T08:56:49.701Z,2700.00
2019-01-18T08:57:49.744Z,2708.00
2019-01-18T08:58:49.770Z,2724.00
2019-01-18T08:59:49.815Z,2736.00
2019-01-18T09:00:49.850Z,2748.00
2019-01-18T09:01:49.875Z,2756.00
2019-01-18T09:02:49.912Z,2772.00
2019-01-18T09:03:49.944Z,2780.00
2019-01-18T09:04:49.979Z,2792.00
2019-01-18T09:05:50.013Z,2804.00
2019-01-18T09:06:50.048Z,2820.00
2019-01-18T09:07:50.083Z,2832.00
2019-01-18T09:08:50.117Z,2844.00
2019-01-18T09:09:50.151Z,2852.00
2019-01-18T09:10:50.194Z,2860.00
2019-01-18T09:11:50.326Z,2872.00
2019-01-18T09:12:50.253Z,2876.00
2019-01-18T09:13:50.298Z,2888.00
2019-01-18T09:14:50.323Z,2896.00
2019-01-18T09:15:50.358Z,2908.00
2019-01-18T09:16:50.401Z,2916.00
2019-01-18T09:17:50.429Z,2924.00
2019-01-18T09:18:50.466Z,2928.00
2019-01-18T09:19:50.502Z,2936.00
2019-01-18T09:20:50.531Z,2948.00
2019-01-18T09:21:50.568Z,2956.00
2019-01-18T09:22:50.601Z,2964.00
2019-01-18T09:23:50.637Z,2972.00
2019-01-18T09:24:50.671Z,2980.00
2019-01-18T09:25:50.706Z,2988.00
2019-01-18T09:26:50.738Z,3000.00
2019-01-18T09:27:50.812Z,3004.00
2019-01-18T09:28:50.813Z,3012.00
2019-01-18T09:29:50.844Z,3020.00
2019-01-18T09:30:50.880Z,3028.00
2019-01-18T09:31:50.913Z,3028.00
2019-01-18T09:32:50.950Z,3036.00
2019-01-18T09:33:50.984Z,3040.00
2019-01-18T09:34:51.015Z,3044.00
2019-01-18T09:35:51.158Z,3048.00
2019-01-18T09:36:51.086Z,3052.00
2019-01-18T09:37:51.129Z,3056.00
2019-01-18T09:38:51.156Z,3064.00
2019-01-18T09:39:51.192Z,3072.00
2019-01-18T09:40:51.228Z,3076.00
2019-01-18T09:41:51.267Z,3080.00
2019-01-18T09:42:51.294Z,3088.00
2019-01-18T09:43:51.330Z,3092.00
2019-01-18T09:44:51.364Z,3100.00
2019-01-18T09:45:51.402Z,3108.00
2019-01-18T09:46:51.437Z,3116.00
2019-01-18T09:47:51.470Z,3124.00
2019-01-18T09:48:51.509Z,3132.00
2019-01-18T09:49:51.541Z,3140.00
2019-01-18T09:50:51.582Z,3148.00
2019-01-18T09:51:51.608Z,3152.00
2019-01-18T09:52:51.672Z,3160.00
2019-01-18T09:53:51.683Z,3164.00
2019-01-18T09:54:51.722Z,3168.00
2019-01-18T09:55:51.749Z,3180.00
2019-01-18T09:56:51.785Z,3188.00
2019-01-18T09:57:51.819Z,3180.00
2019-01-18T09:58:51.853Z,3180.00
2019-01-18T09:59:51.891Z,3176.00
2019-01-18T10:00:51.924Z,3180.00
2019-01-18T10:01:51.959Z,3188.00
2019-01-18T10:02:51.992Z,3200.00
2019-01-18T10:03:52.027Z,3204.00
2019-01-18T10:04:52.064Z,3208.00
2019-01-18T10:05:52.098Z,3212.00
2019-01-18T10:06:52.140Z,3240.00
2019-01-18T10:07:52.168Z,3244.00
2019-01-18T10:08:52.203Z,3264.00
2019-01-18T10:09:52.242Z,3276.00
2019-01-18T10:10:52.271Z,3296.00
2019-01-18T10:11:52.316Z,3312.00
2019-01-18T10:12:52.345Z,3316.00
2019-01-18T10:13:52.383Z,3308.00
2019-01-18T10:14:52.414Z,3292.00
2019-01-18T10:15:52.446Z,3280.00
2019-01-18T10:16:52.481Z,3280.00
2019-01-18T10:17:52.517Z,3284.00
2019-01-18T10:18:52.552Z,3292.00
2019-01-18T10:19:52.586Z,3292.00
2019-01-18T10:20:52.621Z,3300.00
2019-01-18T10:21:52.656Z,3304.00
2019-01-18T10:22:52.690Z,3308.00
2019-01-18T10:23:52.733Z,3312.00
2019-01-18T10:24:52.772Z,3320.00
2019-01-18T10:25:52.798Z,3328.00
2019-01-18T10:26:52.835Z,3328.00
2019-01-18T10:27:52.866Z,3336.00
2019-01-18T10:28:52.901Z,3344.00
2019-01-18T10:29:52.936Z,3352.00
2019-01-18T10:30:52.973Z,3360.00
2019-01-18T10:31:56.259Z,3368.00
2019-01-18T10:32:53.042Z,3384.00
2019-01-18T10:33:53.079Z,3392.00
2019-01-18T10:34:53.114Z,3404.00
2019-01-18T10:35:53.145Z,3408.00
2019-01-18T10:36:53.182Z,3412.00
2019-01-18T10:37:53.224Z,3420.00
2019-01-18T10:38:53.251Z,3420.00
2019-01-18T10:39:53.286Z,3420.00
2019-01-18T10:40:53.322Z,3420.00
2019-01-18T10:41:53.356Z,3412.00
2019-01-18T10:42:53.399Z,3424.00
2019-01-18T10:43:53.427Z,3428.00
2019-01-18T10:44:53.480Z,3428.00
2019-01-18T10:45:53.500Z,3440.00
2019-01-18T10:46:53.532Z,3444.00
2019-01-18T10:47:53.566Z,3452.00
2019-01-18T10:48:53.606Z,3456.00
2019-01-18T10:49:53.644Z,3456.00
2019-01-18T10:50:53.670Z,3464.00
2019-01-18T10:51:53.712Z,3472.00
2019-01-18T10:52:53.749Z,3476.00
2019-01-18T10:53:53.776Z,3480.00
2019-01-18T10:54:53.819Z,3492.00
2019-01-18T10:55:53.847Z,3500.00
2019-01-18T10:56:53.881Z,3504.00
2019-01-18T10:57:53.918Z,3500.00
2019-01-18T10:58:53.954Z,3504.00
2019-01-18T10:59:53.988Z,3504.00
2019-01-18T11:00:54.022Z,3512.00
2019-01-18T11:01:59.685Z,3516.00
2019-01-18T11:02:54.103Z,3520.00
2019-01-18T11:03:54.128Z,3520.00
2019-01-18T11:04:54.170Z,3512.00
2019-01-18T11:05:54.197Z,3504.00
2019-01-18T11:06:54.232Z,3508.00
2019-01-18T11:07:54.271Z,3508.00
2019-01-18T11:08:54.303Z,3508.00
2019-01-18T11:09:54.340Z,3508.00
2019-01-18T11:10:54.373Z,3500.00
2019-01-18T11:11:54.411Z,3504.00
2019-01-18T11:12:54.443Z,3504.00
2019-01-18T11:13:54.477Z,3504.00
2019-01-18T11:14:54.512Z,3512.00
2019-01-18T11:15:54.548Z,3516.00
2019-01-18T11:16:54.583Z,3516.00
2019-01-18T11:17:54.619Z,3520.00
2019-01-18T11:18:54.687Z,3524.00
2019-01-18T11:19:54.689Z,3516.00
2019-01-18T11:20:54.725Z,3520.00
2019-01-18T11:21:54.761Z,3528.00
2019-01-18T11:22:54.795Z,3536.00
2019-01-18T11:23:54.830Z,3540.00
2019-01-18T11:24:54.867Z,3544.00
2019-01-18T11:25:54.903Z,3548.00
2019-01-18T11:26:54.934Z,3552.00
2019-01-18T11:27:54.973Z,3556.00
2019-01-18T11:28:55.015Z,3544.00
2019-01-18T11:29:55.042Z,3544.00
2019-01-18T11:30:55.078Z,3564.00
2019-01-18T11:31:55.114Z,3572.00
2019-01-18T11:32:55.149Z,3576.00
2019-01-18T11:33:55.186Z,3576.00
2019-01-18T11:34:55.272Z,3584.00
2019-01-18T11:35:55.257Z,3592.00
2019-01-18T11:36:56.718Z,3596.00
2019-01-18T11:37:55.326Z,3600.00
2019-01-18T11:38:55.360Z,3612.00
2019-01-18T11:39:55.405Z,3608.00
2019-01-18T11:40:55.430Z,3612.00
2019-01-18T11:41:55.469Z,3620.00
2019-01-18T11:42:55.509Z,3624.00
2019-01-18T11:43:55.581Z,3624.00
2019-01-18T11:44:55.573Z,3632.00
2019-01-18T11:45:55.606Z,3640.00
2019-01-18T11:46:55.650Z,3644.00
2019-01-18T11:47:55.675Z,3644.00
2019-01-18T11:48:55.711Z,3648.00
2019-01-18T11:49:55.747Z,3652.00
2019-01-18T11:50:55.781Z,3652.00
2019-01-18T11:51:55.819Z,3648.00
2019-01-18T11:52:55.854Z,3648.00
2019-01-18T11:53:55.920Z,3648.00
2019-01-18T11:54:55.931Z,3640.00
2019-01-18T11:55:55.958Z,3632.00
2019-01-18T11:56:55.997Z,3624.00
2019-01-18T11:57:56.031Z,3620.00
2019-01-18T11:58:56.066Z,3616.00
2019-01-18T11:59:56.100Z,3604.00
2019-01-18T12:00:56.138Z,3604.00
2019-01-18T12:01:56.171Z,3596.00
2019-01-18T12:02:56.217Z,3564.00
2019-01-18T12:03:56.243Z,3588.00
2019-01-18T12:04:56.278Z,3596.00
2019-01-18T12:05:56.314Z,3596.00
2019-01-18T12:06:56.348Z,3596.00
2019-01-18T12:07:56.394Z,3596.00
2019-01-18T12:08:56.421Z,3600.00
2019-01-18T12:09:56.463Z,3596.00
2019-01-18T12:10:56.492Z,3596.00
2019-01-18T12:11:56.536Z,3600.00
2019-01-18T12:12:56.563Z,3600.00
2019-01-18T12:13:56.601Z,3592.00
2019-01-18T12:14:56.633Z,3580.00
2019-01-18T12:15:56.671Z,3596.00
2019-01-18T12:16:56.703Z,3600.00
2019-01-18T12:17:56.740Z,3620.00
2019-01-18T12:18:56.773Z,3620.00
2019-01-18T12:19:56.812Z,3624.00
2019-01-18T12:20:56.845Z,3624.00
2019-01-18T12:21:56.888Z,3628.00
2019-01-18T12:22:56.929Z,3632.00
2019-01-18T12:23:56.951Z,3632.00
2019-01-18T12:24:56.988Z,3632.00
2019-01-18T12:25:57.023Z,3624.00
2019-01-18T12:26:57.058Z,3624.00
2019-01-18T12:27:57.094Z,3620.00
2019-01-18T12:28:57.133Z,3612.00
2019-01-18T12:29:57.171Z,3612.00
2019-01-18T12:30:57.200Z,3612.00
2019-01-18T12:31:57.239Z,3612.00
2019-01-18T12:32:57.274Z,3612.00
2019-01-18T12:33:57.311Z,3608.00
2019-01-18T12:34:57.391Z,3612.00
2019-01-18T12:35:57.378Z,3612.00
2019-01-18T12:36:58.895Z,3604.00
2019-01-18T12:37:57.452Z,3612.00
2019-01-18T12:38:57.485Z,3604.00
2019-01-18T12:39:57.521Z,3600.00
2019-01-18T12:40:57.561Z,3600.00
2019-01-18T12:41:57.595Z,3580.00
2019-01-18T12:42:57.908Z,3580.00
2019-01-18T12:43:57.682Z,3600.00
2019-01-18T12:44:57.706Z,3592.00
2019-01-18T12:45:57.740Z,3596.00